sensor_id;sensor_type;location;lat;lon;timestamp;temperature;humidity
19033;DHT22;9649;51.042;13.804;2022-12-13T00:01:10;-1.50;99.90
19033;DHT22;9649;51.042;13.804;2022-12-13T00:06:13;-1.60;99.90
19033;DHT22;9649;51.042;13.804;2022-12-13T00:11:16;-1.50;99.90
19033;DHT22;9649;51.042;13.804;2022-12-13T00:16:22;-1.50;1.00
19033;DHT22;9649;51.042;13.804;2022-12-13T00:21:27;-1.60;1.00
19033;DHT22;9649;51.042;13.804;2022-12-13T00:26:31;-1.50;1.00
19033;DHT22;9649;51.042;13.804;2022-12-13T00:31:36;-1.50;1.00
19033;DHT22;9649;51.042;13.804;2022-12-13T00:36:58;-1.60;1.00
19033;DHT22;9649;51.042;13.804;2022-12-13T00:42:01;-1.60;1.00
19033;DHT22;9649;51.042;13.804;2022-12-13T00:47:05;-1.60;1.00
19033;DHT22;9649;51.042;13.804;2022-12-13T00:52:08;-1.60;1.00
19033;DHT22;9649;51.042;13.804;2022-12-13T00:57:11;-1.80;1.00
19033;DHT22;9649;51.042;13.804;2022-12-13T01:02:15;-1.90;1.00
19033;DHT22;9649;51.042;13.804;2022-12-13T01:07:18;-1.80;1.00
19033;DHT22;9649;51.042;13.804;2022-12-13T01:12:21;-1.70;1.00
19033;DHT22;9649;51.042;13.804;2022-12-13T01:17:25;-1.80;1.00
19033;DHT22;9649;51.042;13.804;2022-12-13T01:22:28;-1.80;1.00
19033;DHT22;9649;51.042;13.804;2022-12-13T01:27:31;-1.80;1.00
19033;DHT22;9649;51.042;13.804;2022-12-13T01:32:35;-1.70;1.00
19033;DHT22;9649;51.042;13.804;2022-12-13T01:37:38;-1.50;99.90
19033;DHT22;9649;51.042;13.804;2022-12-13T01:42:40;-1.70;99.90
19033;DHT22;9649;51.042;13.804;2022-12-13T01:47:46;-1.60;1.00
19033;DHT22;9649;51.042;13.804;2022-12-13T01:52:51;-1.70;99.90
19033;DHT22;9649;51.042;13.804;2022-12-13T01:58:02;-1.70;99.90
19033;DHT22;9649;51.042;13.804;2022-12-13T02:03:08;-1.80;99.90
19033;DHT22;9649;51.042;13.804;2022-12-13T02:08:23;-1.80;1.00
19033;DHT22;9649;51.042;13.804;2022-12-13T02:13:26;-1.70;99.90
19033;DHT22;9649;51.042;13.804;2022-12-13T02:18:45;-1.70;99.90
19033;DHT22;9649;51.042;13.804;2022-12-13T02:24:25;-1.70;99.90
19033;DHT22;9649;51.042;13.804;2022-12-13T02:35:25;-1.60;99.90
19033;DHT22;9649;51.042;13.804;2022-12-13T02:40:31;-1.60;1.00
19033;DHT22;9649;51.042;13.804;2022-12-13T02:45:39;-1.50;99.90
19033;DHT22;9649;51.042;13.804;2022-12-13T02:50:45;-1.70;80.30
19033;DHT22;9649;51.042;13.804;2022-12-13T02:55:48;-1.80;1.00
19033;DHT22;9649;51.042;13.804;2022-12-13T03:00:55;-1.90;99.90
19033;DHT22;9649;51.042;13.804;2022-12-13T03:06:12;-2.00;1.00
19033;DHT22;9649;51.042;13.804;2022-12-13T03:11:45;-1.90;1.00
19033;DHT22;9649;51.042;13.804;2022-12-13T03:17:10;-1.90;1.00
19033;DHT22;9649;51.042;13.804;2022-12-13T03:22:16;-1.80;1.00
19033;DHT22;9649;51.042;13.804;2022-12-13T03:27:20;-1.80;1.00
19033;DHT22;9649;51.042;13.804;2022-12-13T03:32:22;-1.90;1.00
19033;DHT22;9649;51.042;13.804;2022-12-13T03:37:27;-1.80;1.00
19033;DHT22;9649;51.042;13.804;2022-12-13T03:42:30;-2.00;1.00
19033;DHT22;9649;51.042;13.804;2022-12-13T03:47:33;-2.00;1.00
19033;DHT22;9649;51.042;13.804;2022-12-13T03:52:37;-2.10;99.90
19033;DHT22;9649;51.042;13.804;2022-12-13T03:57:39;-2.00;7.90
19033;DHT22;9649;51.042;13.804;2022-12-13T04:02:42;-2.00;1.00
19033;DHT22;9649;51.042;13.804;2022-12-13T04:07:47;-2.10;99.90
19033;DHT22;9649;51.042;13.804;2022-12-13T04:12:50;-2.40;1.00
19033;DHT22;9649;51.042;13.804;2022-12-13T04:18:11;-2.70;87.50
19033;DHT22;9649;51.042;13.804;2022-12-13T04:23:15;-3.10;1.00
19033;DHT22;9649;51.042;13.804;2022-12-13T04:28:17;-3.20;1.00
19033;DHT22;9649;51.042;13.804;2022-12-13T04:33:23;-3.00;1.00
19033;DHT22;9649;51.042;13.804;2022-12-13T04:38:27;-3.10;1.00
19033;DHT22;9649;51.042;13.804;2022-12-13T04:43:30;-3.40;1.00
19033;DHT22;9649;51.042;13.804;2022-12-13T04:48:33;-3.60;1.00
19033;DHT22;9649;51.042;13.804;2022-12-13T04:53:37;-3.90;1.00
19033;DHT22;9649;51.042;13.804;2022-12-13T04:58:40;-3.90;1.00
19033;DHT22;9649;51.042;13.804;2022-12-13T05:03:43;-3.90;1.00
19033;DHT22;9649;51.042;13.804;2022-12-13T05:08:47;-3.90;1.00
19033;DHT22;9649;51.042;13.804;2022-12-13T05:13:50;-3.30;1.00
19033;DHT22;9649;51.042;13.804;2022-12-13T05:18:53;-3.40;1.00
19033;DHT22;9649;51.042;13.804;2022-12-13T05:23:57;-3.40;1.00
19033;DHT22;9649;51.042;13.804;2022-12-13T05:29:00;-3.40;1.00
19033;DHT22;9649;51.042;13.804;2022-12-13T05:34:02;-3.80;1.00
19033;DHT22;9649;51.042;13.804;2022-12-13T05:39:07;-4.00;1.00
19033;DHT22;9649;51.042;13.804;2022-12-13T05:44:30;-4.30;1.00
19033;DHT22;9649;51.042;13.804;2022-12-13T05:49:33;-4.80;1.00
19033;DHT22;9649;51.042;13.804;2022-12-13T05:54:41;-4.90;1.00
19033;DHT22;9649;51.042;13.804;2022-12-13T05:59:44;-5.00;1.00
19033;DHT22;9649;51.042;13.804;2022-12-13T06:04:47;-4.80;1.00
19033;DHT22;9649;51.042;13.804;2022-12-13T06:09:51;-4.80;1.00
19033;DHT22;9649;51.042;13.804;2022-12-13T06:15:11;-5.10;1.00
19033;DHT22;9649;51.042;13.804;2022-12-13T06:20:23;-5.30;99.90
19033;DHT22;9649;51.042;13.804;2022-12-13T06:25:27;-5.10;1.00
19033;DHT22;9649;51.042;13.804;2022-12-13T06:30:32;-5.10;99.90
19033;DHT22;9649;51.042;13.804;2022-12-13T06:35:35;-5.00;1.00
19033;DHT22;9649;51.042;13.804;2022-12-13T06:40:43;-5.30;1.00
19033;DHT22;9649;51.042;13.804;2022-12-13T06:45:46;-5.30;1.00
19033;DHT22;9649;51.042;13.804;2022-12-13T06:50:49;-5.60;1.00
19033;DHT22;9649;51.042;13.804;2022-12-13T06:55:53;-6.00;99.90
19033;DHT22;9649;51.042;13.804;2022-12-13T07:01:00;-5.80;99.90
19033;DHT22;9649;51.042;13.804;2022-12-13T07:06:05;-5.40;1.00
19033;DHT22;9649;51.042;13.804;2022-12-13T07:11:14;-5.50;1.00
19033;DHT22;9649;51.042;13.804;2022-12-13T07:16:18;-5.70;1.00
19033;DHT22;9649;51.042;13.804;2022-12-13T07:21:21;-5.90;1.00
19033;DHT22;9649;51.042;13.804;2022-12-13T07:26:25;-5.80;1.00
19033;DHT22;9649;51.042;13.804;2022-12-13T07:31:28;-4.80;1.00
19033;DHT22;9649;51.042;13.804;2022-12-13T07:36:31;-3.10;99.90
19033;DHT22;9649;51.042;13.804;2022-12-13T07:41:35;-1.40;1.00
19033;DHT22;9649;51.042;13.804;2022-12-13T07:46:38;-2.20;99.90
19033;DHT22;9649;51.042;13.804;2022-12-13T07:51:40;-3.20;1.00
19033;DHT22;9649;51.042;13.804;2022-12-13T07:56:45;-3.80;66.50
19033;DHT22;9649;51.042;13.804;2022-12-13T08:01:47;-4.00;1.00
19033;DHT22;9649;51.042;13.804;2022-12-13T08:06:50;-4.00;1.00
19033;DHT22;9649;51.042;13.804;2022-12-13T08:11:54;-4.10;1.00
19033;DHT22;9649;51.042;13.804;2022-12-13T08:17:02;-4.00;1.00
19033;DHT22;9649;51.042;13.804;2022-12-13T08:22:04;-4.00;77.60
19033;DHT22;9649;51.042;13.804;2022-12-13T08:27:16;-4.00;99.90
19033;DHT22;9649;51.042;13.804;2022-12-13T08:32:19;-3.80;99.90
19033;DHT22;9649;51.042;13.804;2022-12-13T08:37:22;-3.30;1.00
19033;DHT22;9649;51.042;13.804;2022-12-13T08:42:26;-2.50;99.90
19033;DHT22;9649;51.042;13.804;2022-12-13T08:47:29;-2.00;1.20
19033;DHT22;9649;51.042;13.804;2022-12-13T08:52:36;-2.20;1.00
19033;DHT22;9649;51.042;13.804;2022-12-13T08:57:43;-2.20;1.00
19033;DHT22;9649;51.042;13.804;2022-12-13T09:02:46;-2.10;1.00
19033;DHT22;9649;51.042;13.804;2022-12-13T09:07:53;-2.40;1.00
19033;DHT22;9649;51.042;13.804;2022-12-13T09:12:58;-0.60;99.90
19033;DHT22;9649;51.042;13.804;2022-12-13T09:18:03;0.10;1.00
19033;DHT22;9649;51.042;13.804;2022-12-13T09:23:06;4.30;51.70
19033;DHT22;9649;51.042;13.804;2022-12-13T09:28:25;6.90;1.00
19033;DHT22;9649;51.042;13.804;2022-12-13T09:33:29;10.50;1.00
19033;DHT22;9649;51.042;13.804;2022-12-13T09:38:32;13.50;1.00
19033;DHT22;9649;51.042;13.804;2022-12-13T09:43:37;17.40;1.00
19033;DHT22;9649;51.042;13.804;2022-12-13T09:48:44;16.10;99.90
19033;DHT22;9649;51.042;13.804;2022-12-13T09:53:50;17.50;99.90
19033;DHT22;9649;51.042;13.804;2022-12-13T09:58:55;10.60;99.90
19033;DHT22;9649;51.042;13.804;2022-12-13T10:04:00;10.20;99.90
19033;DHT22;9649;51.042;13.804;2022-12-13T10:09:06;12.00;99.90
19033;DHT22;9649;51.042;13.804;2022-12-13T10:14:16;14.70;99.90
19033;DHT22;9649;51.042;13.804;2022-12-13T10:19:22;17.30;99.90
19033;DHT22;9649;51.042;13.804;2022-12-13T10:24:47;17.50;99.90
19033;DHT22;9649;51.042;13.804;2022-12-13T10:30:05;17.80;99.90
19033;DHT22;9649;51.042;13.804;2022-12-13T10:35:21;17.20;99.90
19033;DHT22;9649;51.042;13.804;2022-12-13T10:40:27;16.50;99.90
19033;DHT22;9649;51.042;13.804;2022-12-13T10:45:35;15.90;99.90
19033;DHT22;9649;51.042;13.804;2022-12-13T10:50:38;16.80;99.90
19033;DHT22;9649;51.042;13.804;2022-12-13T10:55:41;17.60;99.90
19033;DHT22;9649;51.042;13.804;2022-12-13T11:00:46;17.00;99.90
19033;DHT22;9649;51.042;13.804;2022-12-13T11:06:02;20.00;99.90
19033;DHT22;9649;51.042;13.804;2022-12-13T11:11:06;18.30;99.90
19033;DHT22;9649;51.042;13.804;2022-12-13T11:16:20;18.40;99.90
19033;DHT22;9649;51.042;13.804;2022-12-13T11:21:25;18.50;99.90
19033;DHT22;9649;51.042;13.804;2022-12-13T11:26:31;16.10;99.90
19033;DHT22;9649;51.042;13.804;2022-12-13T11:31:42;16.60;99.90
19033;DHT22;9649;51.042;13.804;2022-12-13T11:36:51;19.30;99.90
19033;DHT22;9649;51.042;13.804;2022-12-13T11:41:58;16.30;99.90
19033;DHT22;9649;51.042;13.804;2022-12-13T11:47:06;17.20;99.90
19033;DHT22;9649;51.042;13.804;2022-12-13T11:52:15;17.40;99.90
19033;DHT22;9649;51.042;13.804;2022-12-13T11:57:30;19.30;99.90
19033;DHT22;9649;51.042;13.804;2022-12-13T12:02:40;18.40;99.90
19033;DHT22;9649;51.042;13.804;2022-12-13T12:07:47;16.20;99.90
19033;DHT22;9649;51.042;13.804;2022-12-13T12:13:16;16.10;99.90
19033;DHT22;9649;51.042;13.804;2022-12-13T12:18:22;17.00;99.90
19033;DHT22;9649;51.042;13.804;2022-12-13T12:23:38;18.90;99.90
19033;DHT22;9649;51.042;13.804;2022-12-13T12:29:07;20.00;99.90
19033;DHT22;9649;51.042;13.804;2022-12-13T12:34:22;21.30;99.90
19033;DHT22;9649;51.042;13.804;2022-12-13T12:39:37;20.20;99.90
19033;DHT22;9649;51.042;13.804;2022-12-13T12:44:54;18.60;99.90
19033;DHT22;9649;51.042;13.804;2022-12-13T12:50:21;18.10;99.90
19033;DHT22;9649;51.042;13.804;2022-12-13T12:55:36;19.20;99.90
19033;DHT22;9649;51.042;13.804;2022-12-13T13:00:44;18.80;99.90
19033;DHT22;9649;51.042;13.804;2022-12-13T13:05:55;21.20;99.90
19033;DHT22;9649;51.042;13.804;2022-12-13T13:11:04;21.30;99.90
19033;DHT22;9649;51.042;13.804;2022-12-13T13:16:31;20.90;99.90
19033;DHT22;9649;51.042;13.804;2022-12-13T13:21:45;20.60;99.90
19033;DHT22;9649;51.042;13.804;2022-12-13T13:26:51;17.80;99.90
19033;DHT22;9649;51.042;13.804;2022-12-13T13:31:56;10.80;99.90
19033;DHT22;9649;51.042;13.804;2022-12-13T13:37:25;7.00;99.90
19033;DHT22;9649;51.042;13.804;2022-12-13T13:42:29;4.90;99.90
19033;DHT22;9649;51.042;13.804;2022-12-13T13:47:37;3.60;99.90
19033;DHT22;9649;51.042;13.804;2022-12-13T13:52:52;2.70;99.90
19033;DHT22;9649;51.042;13.804;2022-12-13T13:58:25;2.20;1.00
19033;DHT22;9649;51.042;13.804;2022-12-13T14:04:08;2.00;1.00
19033;DHT22;9649;51.042;13.804;2022-12-13T14:15:11;1.20;99.90
19033;DHT22;9649;51.042;13.804;2022-12-13T14:20:51;0.90;99.90
19033;DHT22;9649;51.042;13.804;2022-12-13T14:26:20;0.80;1.00
19033;DHT22;9649;51.042;13.804;2022-12-13T14:31:31;0.70;1.00
19033;DHT22;9649;51.042;13.804;2022-12-13T14:36:36;0.20;99.90
19033;DHT22;9649;51.042;13.804;2022-12-13T14:41:46;-0.10;89.90
19033;DHT22;9649;51.042;13.804;2022-12-13T14:46:59;-0.20;99.90
19033;DHT22;9649;51.042;13.804;2022-12-13T14:52:05;-0.50;1.00
19033;DHT22;9649;51.042;13.804;2022-12-13T14:57:15;-0.70;1.00
19033;DHT22;9649;51.042;13.804;2022-12-13T15:02:20;-0.90;99.90
19033;DHT22;9649;51.042;13.804;2022-12-13T15:07:35;-1.10;1.00
19033;DHT22;9649;51.042;13.804;2022-12-13T15:12:41;-1.30;1.00
19033;DHT22;9649;51.042;13.804;2022-12-13T15:17:44;-1.40;99.90
19033;DHT22;9649;51.042;13.804;2022-12-13T15:22:47;-1.60;25.10
19033;DHT22;9649;51.042;13.804;2022-12-13T15:27:59;-1.80;1.00
19033;DHT22;9649;51.042;13.804;2022-12-13T15:33:04;-2.10;1.00
19033;DHT22;9649;51.042;13.804;2022-12-13T15:38:11;-2.30;99.90
19033;DHT22;9649;51.042;13.804;2022-12-13T15:43:34;-2.40;99.90
19033;DHT22;9649;51.042;13.804;2022-12-13T15:48:41;-2.30;1.00
19033;DHT22;9649;51.042;13.804;2022-12-13T15:54:02;-2.50;1.00
19033;DHT22;9649;51.042;13.804;2022-12-13T15:59:24;-2.60;1.00
19033;DHT22;9649;51.042;13.804;2022-12-13T16:04:29;-2.50;99.90
19033;DHT22;9649;51.042;13.804;2022-12-13T16:09:34;-2.80;52.90
19033;DHT22;9649;51.042;13.804;2022-12-13T16:14:43;-2.90;49.70
19033;DHT22;9649;51.042;13.804;2022-12-13T16:19:51;-3.30;1.00
19033;DHT22;9649;51.042;13.804;2022-12-13T16:24:54;-3.40;99.90
19033;DHT22;9649;51.042;13.804;2022-12-13T16:29:59;-3.60;1.00
19033;DHT22;9649;51.042;13.804;2022-12-13T16:35:02;-3.60;1.00
19033;DHT22;9649;51.042;13.804;2022-12-13T16:40:23;-3.60;1.00
19033;DHT22;9649;51.042;13.804;2022-12-13T16:45:29;-3.50;1.00
19033;DHT22;9649;51.042;13.804;2022-12-13T16:50:44;-3.50;1.00
19033;DHT22;9649;51.042;13.804;2022-12-13T16:55:47;-3.70;1.00
19033;DHT22;9649;51.042;13.804;2022-12-13T17:01:07;-3.70;1.00
19033;DHT22;9649;51.042;13.804;2022-12-13T17:06:11;-3.90;1.00
19033;DHT22;9649;51.042;13.804;2022-12-13T17:11:15;-4.00;1.00
19033;DHT22;9649;51.042;13.804;2022-12-13T17:16:20;-3.90;1.00
19033;DHT22;9649;51.042;13.804;2022-12-13T17:21:24;-3.90;1.00
19033;DHT22;9649;51.042;13.804;2022-12-13T17:26:28;-3.90;1.00
19033;DHT22;9649;51.042;13.804;2022-12-13T17:31:32;-4.20;1.00
19033;DHT22;9649;51.042;13.804;2022-12-13T17:36:37;-4.40;1.00
19033;DHT22;9649;51.042;13.804;2022-12-13T17:41:39;-4.50;1.00
19033;DHT22;9649;51.042;13.804;2022-12-13T17:46:44;-4.50;1.00
19033;DHT22;9649;51.042;13.804;2022-12-13T17:51:56;-4.60;1.00
19033;DHT22;9649;51.042;13.804;2022-12-13T17:56:59;-4.80;1.00
19033;DHT22;9649;51.042;13.804;2022-12-13T18:02:03;-4.90;1.00
19033;DHT22;9649;51.042;13.804;2022-12-13T18:07:06;-4.90;1.00
19033;DHT22;9649;51.042;13.804;2022-12-13T18:12:09;-5.00;1.00
19033;DHT22;9649;51.042;13.804;2022-12-13T18:17:14;-5.20;1.00
19033;DHT22;9649;51.042;13.804;2022-12-13T18:22:17;-5.20;1.00
19033;DHT22;9649;51.042;13.804;2022-12-13T18:27:19;-5.40;1.00
19033;DHT22;9649;51.042;13.804;2022-12-13T18:32:23;-5.60;1.00
19033;DHT22;9649;51.042;13.804;2022-12-13T18:37:26;-5.60;1.00
19033;DHT22;9649;51.042;13.804;2022-12-13T18:42:29;-5.70;1.00
19033;DHT22;9649;51.042;13.804;2022-12-13T18:47:33;-5.60;1.00
19033;DHT22;9649;51.042;13.804;2022-12-13T18:52:36;-5.60;1.00
19033;DHT22;9649;51.042;13.804;2022-12-13T18:57:39;-5.70;1.00
19033;DHT22;9649;51.042;13.804;2022-12-13T19:02:43;-5.90;1.00
19033;DHT22;9649;51.042;13.804;2022-12-13T19:07:46;-6.20;1.00
19033;DHT22;9649;51.042;13.804;2022-12-13T19:12:49;-6.20;1.00
19033;DHT22;9649;51.042;13.804;2022-12-13T19:17:54;-6.40;92.70
19033;DHT22;9649;51.042;13.804;2022-12-13T19:22:57;-6.40;99.90
19033;DHT22;9649;51.042;13.804;2022-12-13T19:28:00;-6.30;31.50
19033;DHT22;9649;51.042;13.804;2022-12-13T19:33:05;-6.20;32.50
19033;DHT22;9649;51.042;13.804;2022-12-13T19:38:08;-6.50;54.50
19033;DHT22;9649;51.042;13.804;2022-12-13T19:43:12;-7.00;99.90
19033;DHT22;9649;51.042;13.804;2022-12-13T19:48:17;-7.20;99.90
19033;DHT22;9649;51.042;13.804;2022-12-13T19:53:20;-6.90;99.90
19033;DHT22;9649;51.042;13.804;2022-12-13T19:58:23;-6.60;99.90
19033;DHT22;9649;51.042;13.804;2022-12-13T20:03:29;-6.80;1.00
19033;DHT22;9649;51.042;13.804;2022-12-13T20:37:18;-6.90;1.00
19033;DHT22;9649;51.042;13.804;2022-12-13T20:42:22;-7.10;1.00
19033;DHT22;9649;51.042;13.804;2022-12-13T20:47:25;-6.90;1.00
19033;DHT22;9649;51.042;13.804;2022-12-13T20:52:30;-7.00;1.00
19033;DHT22;9649;51.042;13.804;2022-12-13T20:57:33;-7.10;1.00
19033;DHT22;9649;51.042;13.804;2022-12-13T21:02:38;-7.00;1.00
19033;DHT22;9649;51.042;13.804;2022-12-13T21:07:45;-7.20;1.00
19033;DHT22;9649;51.042;13.804;2022-12-13T21:13:08;-7.10;1.00
19033;DHT22;9649;51.042;13.804;2022-12-13T21:18:14;-7.30;1.00
19033;DHT22;9649;51.042;13.804;2022-12-13T21:23:19;-7.20;1.00
19033;DHT22;9649;51.042;13.804;2022-12-13T21:28:24;-7.40;1.00
19033;DHT22;9649;51.042;13.804;2022-12-13T21:33:27;-7.50;21.80
19033;DHT22;9649;51.042;13.804;2022-12-13T21:38:32;-7.40;80.80
19033;DHT22;9649;51.042;13.804;2022-12-13T21:43:37;-7.20;12.70
19033;DHT22;9649;51.042;13.804;2022-12-13T22:21:40;-7.60;1.00
19033;DHT22;9649;51.042;13.804;2022-12-13T22:26:43;-7.30;8.30
19033;DHT22;9649;51.042;13.804;2022-12-13T22:31:46;-7.20;1.00
19033;DHT22;9649;51.042;13.804;2022-12-13T22:36:51;-7.30;1.00
19033;DHT22;9649;51.042;13.804;2022-12-13T22:41:54;-7.50;71.80
19033;DHT22;9649;51.042;13.804;2022-12-13T22:46:57;-7.50;99.90
19033;DHT22;9649;51.042;13.804;2022-12-13T22:52:01;-7.50;99.90
19033;DHT22;9649;51.042;13.804;2022-12-13T22:57:04;-7.30;99.90
19033;DHT22;9649;51.042;13.804;2022-12-13T23:02:06;-7.20;99.90
19033;DHT22;9649;51.042;13.804;2022-12-13T23:07:11;-6.50;99.90
19033;DHT22;9649;51.042;13.804;2022-12-13T23:12:14;-5.90;42.30
19033;DHT22;9649;51.042;13.804;2022-12-13T23:17:35;-5.30;1.00
19033;DHT22;9649;51.042;13.804;2022-12-13T23:22:39;-4.90;1.00
19033;DHT22;9649;51.042;13.804;2022-12-13T23:27:42;-4.60;1.00
19033;DHT22;9649;51.042;13.804;2022-12-13T23:32:45;-4.40;1.00
19033;DHT22;9649;51.042;13.804;2022-12-13T23:37:49;-4.30;99.90
19033;DHT22;9649;51.042;13.804;2022-12-13T23:42:51;-4.20;19.40
19033;DHT22;9649;51.042;13.804;2022-12-13T23:47:54;-4.10;99.90
19033;DHT22;9649;51.042;13.804;2022-12-13T23:52:58;-4.00;1.00
19033;DHT22;9649;51.042;13.804;2022-12-13T23:58:01;-4.00;1.00
